createdAt,value
2024-03-03T00:01:03.929Z,17.43
2024-03-03T00:03:34.561Z,17.43
2024-03-03T00:06:05.398Z,17.43
2024-03-03T00:08:33.035Z,16.57
2024-03-03T00:11:00.734Z,18.13
2024-03-03T00:13:33.014Z,15.70
2024-03-03T00:16:00.761Z,17.07
2024-03-03T00:18:28.306Z,17.37
2024-03-03T00:20:55.736Z,17.27
2024-03-03T00:23:25.521Z,17.70
2024-03-03T00:25:52.901Z,17.43
2024-03-03T00:28:20.356Z,17.53
2024-03-03T00:30:48.677Z,17.03
2024-03-03T00:33:16.649Z,16.73
2024-03-03T00:35:44.301Z,16.90
2024-03-03T00:38:12.148Z,16.03
2024-03-03T00:40:42.455Z,15.10
2024-03-03T00:43:09.910Z,14.93
2024-03-03T00:45:37.414Z,16.37
2024-03-03T00:48:05.425Z,15.93
2024-03-03T00:50:32.991Z,15.33
2024-03-03T00:53:01.413Z,15.47
2024-03-03T00:55:28.862Z,14.13
2024-03-03T00:57:58.824Z,16.83
2024-03-03T01:00:27.330Z,16.40
2024-03-03T01:02:54.781Z,16.40
2024-03-03T01:05:22.277Z,16.47
2024-03-03T01:07:49.849Z,16.30
2024-03-03T01:10:17.928Z,15.37
2024-03-03T01:12:45.420Z,15.03
2024-03-03T01:15:14.968Z,14.80
2024-03-03T01:17:42.748Z,15.23
2024-03-03T01:20:11.392Z,14.90
2024-03-03T01:22:39.027Z,15.23
2024-03-03T01:25:07.829Z,15.00
2024-03-03T01:27:35.516Z,13.70
2024-03-03T01:30:05.321Z,14.80
2024-03-03T01:32:34.240Z,14.50
2024-03-03T01:35:03.523Z,14.90
2024-03-03T01:37:32.067Z,14.40
2024-03-03T01:40:01.010Z,14.43
2024-03-03T01:42:29.261Z,14.87
2024-03-03T01:44:57.541Z,14.23
2024-03-03T01:47:25.030Z,14.30
2024-03-03T01:49:55.322Z,14.10
2024-03-03T01:52:23.748Z,14.33
2024-03-03T01:54:52.033Z,13.57
2024-03-03T01:57:21.756Z,14.30
2024-03-03T01:59:50.690Z,14.07
2024-03-03T02:02:18.249Z,13.83
2024-03-03T02:04:48.708Z,14.00
2024-03-03T02:07:18.655Z,14.33
2024-03-03T02:09:46.856Z,12.77
2024-03-03T02:12:18.258Z,12.53
2024-03-03T02:14:47.597Z,14.20
2024-03-03T02:17:15.253Z,13.77
2024-03-03T02:19:43.474Z,12.20
2024-03-03T02:22:12.347Z,12.83
2024-03-03T02:24:39.830Z,12.63
2024-03-03T02:27:07.623Z,12.37
2024-03-03T02:29:35.303Z,12.87
2024-03-03T02:32:02.773Z,12.23
2024-03-03T02:34:30.952Z,12.57
2024-03-03T02:36:58.506Z,12.40
2024-03-03T02:39:27.971Z,11.67
2024-03-03T02:41:57.918Z,11.50
2024-03-03T02:44:25.708Z,11.97
2024-03-03T02:46:53.985Z,11.77
2024-03-03T02:49:21.480Z,11.97
2024-03-03T02:51:48.991Z,11.97
2024-03-03T02:54:17.133Z,10.27
2024-03-03T02:56:46.042Z,11.73
2024-03-03T02:59:13.654Z,11.80
2024-03-03T03:01:41.178Z,11.67
2024-03-03T03:04:08.727Z,12.17
2024-03-03T03:06:36.151Z,11.50
2024-03-03T03:09:04.705Z,11.13
2024-03-03T03:11:32.755Z,11.70
2024-03-03T03:14:03.730Z,11.87
2024-03-03T03:16:31.151Z,11.43
2024-03-03T03:18:59.143Z,11.27
2024-03-03T03:21:27.924Z,11.70
2024-03-03T03:23:55.362Z,11.80
2024-03-03T03:26:23.710Z,10.90
2024-03-03T03:28:51.484Z,10.27
2024-03-03T03:31:20.738Z,11.50
2024-03-03T03:33:49.358Z,11.40
2024-03-03T03:36:19.144Z,11.10
2024-03-03T03:38:47.020Z,10.47
2024-03-03T03:41:14.437Z,10.23
2024-03-03T03:43:42.111Z,10.27
2024-03-03T03:46:09.701Z,10.80
2024-03-03T03:48:38.459Z,11.03
2024-03-03T03:51:06.216Z,9.90
2024-03-03T03:53:34.611Z,11.00
2024-03-03T03:56:02.493Z,11.27
2024-03-03T03:58:30.871Z,11.10
2024-03-03T04:00:58.397Z,10.40
2024-03-03T04:03:27.116Z,10.40
2024-03-03T04:05:55.862Z,11.17
2024-03-03T04:08:23.273Z,10.57
2024-03-03T04:10:51.105Z,10.73
2024-03-03T04:13:20.425Z,10.77
2024-03-03T04:15:48.367Z,10.27
2024-03-03T04:18:16.245Z,10.73
2024-03-03T04:20:43.688Z,10.60
2024-03-03T04:23:12.456Z,10.20
2024-03-03T04:25:40.662Z,10.33
2024-03-03T04:28:08.360Z,10.30
2024-03-03T04:30:36.532Z,10.57
2024-03-03T04:33:04.562Z,11.53
2024-03-03T04:35:32.171Z,10.60
2024-03-03T04:37:59.564Z,10.07
2024-03-03T04:40:28.328Z,10.30
2024-03-03T04:42:55.833Z,10.20
2024-03-03T04:45:23.294Z,10.43
2024-03-03T04:47:51.465Z,10.47
2024-03-03T04:50:19.992Z,9.93
2024-03-03T04:52:47.590Z,10.50
2024-03-03T04:55:16.565Z,10.93
2024-03-03T04:57:45.814Z,10.27
2024-03-03T05:00:13.612Z,10.43
2024-03-03T05:02:42.244Z,9.97
2024-03-03T05:05:10.533Z,10.63
2024-03-03T05:07:37.937Z,10.60
2024-03-03T05:10:05.777Z,9.67
2024-03-03T05:12:33.205Z,10.03
2024-03-03T05:15:02.106Z,10.23
2024-03-03T05:17:29.562Z,10.13
2024-03-03T05:19:58.006Z,10.50
2024-03-03T05:22:25.490Z,8.97
2024-03-03T05:24:52.918Z,9.50
2024-03-03T05:27:20.980Z,9.60
2024-03-03T05:29:49.196Z,10.40
2024-03-03T05:32:17.905Z,9.83
2024-03-03T05:34:45.339Z,9.73
2024-03-03T05:37:13.175Z,9.90
2024-03-03T05:39:41.926Z,9.97
2024-03-03T05:42:10.103Z,10.23
2024-03-03T05:44:37.557Z,9.77
2024-03-03T05:47:06.590Z,9.87
2024-03-03T05:49:37.813Z,9.53
2024-03-03T05:52:05.897Z,9.63
2024-03-03T05:54:33.321Z,8.70
2024-03-03T05:57:00.759Z,9.40
2024-03-03T05:59:28.528Z,9.17
2024-03-03T06:01:57.263Z,8.93
2024-03-03T06:04:25.101Z,8.70
2024-03-03T06:06:54.690Z,8.70
2024-03-03T06:09:22.151Z,8.63
2024-03-03T06:11:51.320Z,9.63
2024-03-03T06:14:18.842Z,8.57
2024-03-03T06:16:46.726Z,8.80
2024-03-03T06:19:15.175Z,8.63
2024-03-03T06:21:43.636Z,9.30
2024-03-03T06:24:12.396Z,10.10
2024-03-03T06:26:39.805Z,10.17
2024-03-03T06:29:07.558Z,8.83
2024-03-03T06:31:35.202Z,8.97
2024-03-03T06:34:02.801Z,8.57
2024-03-03T06:36:31.821Z,12.83
2024-03-03T06:38:59.230Z,10.27
2024-03-03T06:41:28.148Z,9.13
2024-03-03T06:43:56.221Z,9.37
2024-03-03T06:46:24.781Z,9.20
2024-03-03T06:48:53.581Z,8.73
2024-03-03T06:51:21.013Z,9.43
2024-03-03T06:53:48.421Z,9.27
2024-03-03T06:56:17.910Z,8.97
2024-03-03T06:58:47.279Z,9.20
2024-03-03T07:01:16.049Z,9.27
2024-03-03T07:04:11.672Z,9.73
2024-03-03T07:06:39.230Z,9.43
2024-03-03T07:09:09.380Z,10.00
2024-03-03T07:11:37.443Z,9.43
2024-03-03T07:14:06.821Z,10.13
2024-03-03T07:16:34.869Z,9.50
2024-03-03T07:19:02.363Z,9.77
2024-03-03T07:21:30.129Z,9.20
2024-03-03T07:23:57.765Z,9.07
2024-03-03T07:26:25.252Z,10.10
2024-03-03T07:28:53.184Z,10.77
2024-03-03T07:31:22.044Z,10.00
2024-03-03T07:33:49.501Z,9.70
2024-03-03T07:36:17.090Z,10.90
2024-03-03T07:38:44.512Z,11.80
2024-03-03T07:41:11.953Z,11.23
2024-03-03T07:43:39.386Z,11.97
2024-03-03T07:46:06.825Z,10.43
2024-03-03T07:48:35.597Z,10.90
2024-03-03T07:51:03.409Z,10.20
2024-03-03T07:53:30.833Z,11.00
2024-03-03T07:55:58.238Z,10.10
2024-03-03T07:58:26.179Z,10.93
2024-03-03T08:00:54.517Z,10.87
2024-03-03T08:03:22.501Z,11.20
2024-03-03T08:05:51.235Z,12.13
2024-03-03T08:08:18.633Z,12.30
2024-03-03T08:10:46.137Z,12.87
2024-03-03T08:13:13.631Z,13.30
2024-03-03T08:15:41.147Z,12.53
2024-03-03T08:18:10.477Z,12.90
2024-03-03T08:20:38.278Z,12.87
2024-03-03T08:23:07.237Z,12.20
2024-03-03T08:25:34.705Z,12.60
2024-03-03T08:28:08.779Z,12.97
2024-03-03T08:30:37.301Z,12.30
2024-03-03T08:33:05.728Z,12.17
2024-03-03T08:35:33.160Z,12.63
2024-03-03T08:38:00.596Z,13.13
2024-03-03T08:40:29.487Z,12.93
2024-03-03T08:42:57.041Z,12.13
2024-03-03T08:45:24.568Z,11.97
2024-03-03T08:47:52.155Z,12.67
2024-03-03T08:50:20.167Z,12.77
2024-03-03T08:52:50.091Z,12.37
2024-03-03T08:55:17.987Z,10.77
2024-03-03T08:57:47.650Z,11.43
2024-03-03T09:00:15.963Z,11.07
2024-03-03T09:02:43.582Z,11.47
2024-03-03T09:05:13.874Z,10.67
2024-03-03T09:07:42.138Z,10.90
2024-03-03T09:10:09.805Z,12.00
2024-03-03T09:12:37.318Z,10.97
2024-03-03T09:15:07.255Z,12.13
2024-03-03T09:17:35.377Z,12.33
2024-03-03T09:20:04.650Z,12.20
2024-03-03T09:22:36.543Z,13.80
2024-03-03T09:25:07.513Z,12.60
2024-03-03T09:27:34.988Z,12.83
2024-03-03T09:30:06.693Z,13.47
2024-03-03T09:32:37.454Z,15.20
2024-03-03T09:35:08.186Z,23.93
2024-03-03T09:37:36.704Z,16.07
2024-03-03T09:40:07.213Z,14.90
2024-03-03T09:42:36.076Z,13.40
2024-03-03T09:45:08.104Z,12.27
2024-03-03T09:47:38.482Z,12.17
2024-03-03T09:50:11.328Z,12.80
2024-03-03T09:52:39.595Z,12.20
2024-03-03T09:55:09.982Z,12.87
2024-03-03T09:57:37.990Z,12.00
2024-03-03T10:00:08.020Z,12.20
2024-03-03T10:02:46.456Z,12.73
2024-03-03T10:05:16.986Z,13.73
2024-03-03T10:07:48.086Z,13.83
2024-03-03T10:10:18.863Z,12.10
2024-03-03T10:12:49.869Z,10.77
2024-03-03T10:15:18.033Z,10.80
2024-03-03T10:17:47.683Z,12.40
2024-03-03T10:20:17.164Z,12.30
2024-03-03T10:22:48.016Z,11.40
2024-03-03T10:25:17.245Z,12.90
2024-03-03T10:27:46.564Z,12.83
2024-03-03T10:30:16.508Z,12.03
2024-03-03T10:32:44.538Z,12.87
2024-03-03T10:35:13.726Z,14.27
2024-03-03T10:37:50.044Z,16.67
2024-03-03T10:40:17.711Z,17.20
2024-03-03T10:42:45.421Z,14.53
2024-03-03T10:45:13.811Z,13.93
2024-03-03T10:47:41.291Z,12.33
2024-03-03T10:50:10.177Z,13.33
2024-03-03T10:52:39.394Z,13.13
2024-03-03T10:55:11.000Z,12.03
2024-03-03T10:57:40.544Z,13.00
2024-03-03T11:00:12.808Z,12.50
2024-03-03T11:02:40.428Z,12.40
2024-03-03T11:05:08.237Z,12.33
2024-03-03T11:07:38.834Z,12.60
2024-03-03T11:10:07.761Z,11.90
2024-03-03T11:12:38.103Z,12.40
2024-03-03T11:15:06.569Z,12.17
2024-03-03T11:17:35.055Z,12.03
2024-03-03T11:20:05.823Z,11.60
2024-03-03T11:22:36.654Z,11.93
2024-03-03T11:25:06.641Z,11.63
2024-03-03T11:27:38.976Z,11.93
2024-03-03T11:30:11.198Z,11.50
2024-03-03T11:32:40.584Z,11.60
2024-03-03T11:35:10.005Z,12.83
2024-03-03T11:37:37.682Z,12.43
2024-03-03T11:40:05.713Z,18.33
2024-03-03T11:42:39.323Z,20.23
2024-03-03T11:45:07.977Z,17.17
2024-03-03T11:47:38.012Z,14.30
2024-03-03T11:50:18.332Z,12.23
2024-03-03T11:52:46.830Z,11.27
2024-03-03T11:55:16.829Z,10.13
2024-03-03T11:57:45.536Z,10.67
2024-03-03T12:00:18.034Z,10.43
2024-03-03T12:02:47.484Z,10.47
2024-03-03T12:05:16.045Z,11.43
2024-03-03T12:07:44.514Z,11.87
2024-03-03T12:10:16.682Z,11.63
2024-03-03T12:12:47.051Z,12.60
2024-03-03T12:15:14.709Z,12.47
2024-03-03T12:17:42.693Z,12.60
2024-03-03T12:20:13.068Z,11.57
2024-03-03T12:22:43.360Z,12.83
2024-03-03T12:25:11.266Z,12.47
2024-03-03T12:27:39.561Z,13.63
2024-03-03T12:30:10.489Z,13.47
2024-03-03T12:32:38.880Z,13.00
2024-03-03T12:35:08.817Z,12.47
2024-03-03T12:37:40.871Z,12.83
2024-03-03T12:40:10.019Z,12.70
2024-03-03T12:42:38.195Z,12.77
2024-03-03T12:45:06.347Z,12.13
2024-03-03T12:47:34.869Z,12.90
2024-03-03T12:50:02.352Z,13.30
2024-03-03T12:52:30.001Z,13.27
2024-03-03T12:54:58.803Z,13.50
2024-03-03T12:57:28.746Z,13.03
2024-03-03T12:59:57.025Z,13.23
2024-03-03T13:02:25.354Z,14.80
2024-03-03T13:04:55.981Z,14.07
2024-03-03T13:07:24.539Z,12.87
2024-03-03T13:09:52.207Z,13.53
2024-03-03T13:12:22.099Z,12.37
2024-03-03T13:14:53.653Z,11.93
2024-03-03T13:17:24.151Z,10.40
2024-03-03T13:19:52.471Z,11.77
2024-03-03T13:22:20.311Z,10.43
2024-03-03T13:24:55.011Z,11.17
2024-03-03T13:27:25.484Z,10.90
2024-03-03T13:29:53.601Z,10.80
2024-03-03T13:32:21.428Z,10.50
2024-03-03T13:34:54.580Z,10.07
2024-03-03T13:37:22.232Z,9.10
2024-03-03T13:39:51.123Z,8.97
2024-03-03T13:42:18.621Z,13.20
2024-03-03T13:44:48.008Z,11.07
2024-03-03T13:47:15.810Z,15.93
2024-03-03T13:49:44.265Z,13.40
2024-03-03T13:52:14.807Z,11.37
2024-03-03T13:54:44.679Z,10.83
2024-03-03T13:57:12.443Z,10.33
2024-03-03T13:59:40.558Z,9.40
2024-03-03T14:02:09.622Z,9.73
2024-03-03T14:04:37.190Z,9.87
2024-03-03T14:07:05.101Z,10.63
2024-03-03T14:09:32.536Z,10.53
2024-03-03T14:11:59.972Z,11.43
2024-03-03T14:14:27.407Z,10.40
2024-03-03T14:16:54.898Z,10.43
2024-03-03T14:19:24.381Z,10.60
2024-03-03T14:21:55.771Z,10.63
2024-03-03T14:24:23.380Z,10.47
2024-03-03T14:26:51.460Z,10.77
2024-03-03T14:29:20.892Z,10.27
2024-03-03T14:31:48.316Z,10.73
2024-03-03T14:34:17.735Z,11.43
2024-03-03T14:36:52.455Z,10.73
2024-03-03T14:39:21.862Z,10.43
2024-03-03T14:41:51.226Z,10.93
2024-03-03T14:44:21.523Z,10.53
2024-03-03T14:46:50.201Z,11.53
2024-03-03T14:49:17.668Z,10.90
2024-03-03T14:51:45.199Z,10.87
2024-03-03T14:54:14.449Z,10.53
2024-03-03T14:56:41.882Z,10.67
2024-03-03T14:59:10.062Z,10.93
2024-03-03T15:01:37.500Z,10.83
2024-03-03T15:04:08.280Z,9.83
2024-03-03T15:06:36.189Z,9.63
2024-03-03T15:09:04.314Z,11.60
2024-03-03T15:11:34.050Z,12.57
2024-03-03T15:14:05.054Z,11.07
2024-03-03T15:16:32.687Z,14.43
2024-03-03T15:19:01.445Z,11.23
2024-03-03T15:21:28.872Z,10.30
2024-03-03T15:23:56.371Z,11.10
2024-03-03T15:26:25.774Z,9.23
2024-03-03T15:28:56.450Z,10.20
2024-03-03T15:31:24.056Z,10.00
2024-03-03T15:33:51.656Z,8.83
2024-03-03T15:36:20.272Z,10.10
2024-03-03T15:38:47.770Z,10.70
2024-03-03T15:41:15.433Z,12.07
2024-03-03T15:43:45.350Z,10.23
2024-03-03T15:46:14.096Z,9.63
2024-03-03T15:48:41.834Z,9.97
2024-03-03T15:51:10.270Z,9.70
2024-03-03T15:53:37.705Z,9.60
2024-03-03T15:56:05.363Z,10.77
2024-03-03T15:58:34.166Z,10.03
2024-03-03T16:01:01.753Z,10.43
2024-03-03T16:03:30.651Z,10.40
2024-03-03T16:05:59.488Z,11.40
2024-03-03T16:08:27.079Z,12.50
2024-03-03T16:10:57.524Z,11.57
2024-03-03T16:13:25.031Z,13.10
2024-03-03T16:15:53.727Z,12.33
2024-03-03T16:18:22.975Z,14.90
2024-03-03T16:20:51.934Z,16.13
2024-03-03T16:23:20.630Z,11.47
2024-03-03T16:25:49.238Z,14.20
2024-03-03T16:28:17.027Z,10.83
2024-03-03T16:30:44.558Z,9.73
2024-03-03T16:33:13.202Z,8.50
2024-03-03T16:35:40.679Z,11.50
2024-03-03T16:38:10.272Z,12.83
2024-03-03T16:40:38.020Z,13.97
2024-03-03T16:43:06.549Z,11.60
2024-03-03T16:45:34.999Z,9.40
2024-03-03T16:48:03.812Z,8.37
2024-03-03T16:50:31.381Z,8.47
2024-03-03T16:52:59.905Z,12.20
2024-03-03T16:55:28.749Z,9.30
2024-03-03T16:57:59.310Z,9.93
2024-03-03T17:00:26.968Z,13.67
2024-03-03T17:02:55.155Z,12.07
2024-03-03T17:05:23.311Z,13.40
2024-03-03T17:07:51.005Z,12.80
2024-03-03T17:10:18.502Z,10.40
2024-03-03T17:12:47.305Z,9.20
2024-03-03T17:15:14.744Z,10.00
2024-03-03T17:17:42.354Z,10.87
2024-03-03T17:20:10.432Z,9.43
2024-03-03T17:22:38.867Z,9.73
2024-03-03T17:25:07.967Z,8.60
2024-03-03T17:27:35.579Z,8.07
2024-03-03T17:30:08.807Z,7.67
2024-03-03T17:32:36.335Z,7.77
2024-03-03T17:35:03.812Z,7.50
2024-03-03T17:37:31.987Z,7.17
2024-03-03T17:40:01.078Z,7.20
2024-03-03T17:42:28.667Z,7.63
2024-03-03T17:44:56.454Z,7.93
2024-03-03T17:47:26.068Z,7.43
2024-03-03T17:49:53.795Z,7.40
2024-03-03T17:52:21.399Z,7.80
2024-03-03T17:54:49.662Z,7.23
2024-03-03T17:57:17.832Z,7.07
2024-03-03T17:59:45.309Z,7.57
2024-03-03T18:02:14.725Z,7.47
2024-03-03T18:04:44.444Z,7.20
2024-03-03T18:07:16.389Z,7.60
2024-03-03T18:09:46.200Z,7.30
2024-03-03T18:12:13.620Z,7.30
2024-03-03T18:14:41.086Z,8.13
2024-03-03T18:17:09.249Z,8.40
2024-03-03T18:19:37.066Z,8.27
2024-03-03T18:22:07.048Z,8.40
2024-03-03T18:24:36.407Z,9.57
2024-03-03T18:27:03.853Z,9.03
2024-03-03T18:29:33.319Z,9.40
2024-03-03T18:32:02.034Z,9.33
2024-03-03T18:34:30.672Z,9.53
2024-03-03T18:36:58.522Z,9.13
2024-03-03T18:39:28.253Z,9.40
2024-03-03T18:41:56.703Z,10.97
2024-03-03T18:44:24.591Z,12.07
2024-03-03T18:46:52.459Z,11.83
2024-03-03T18:49:19.952Z,12.33
2024-03-03T18:51:48.572Z,10.87
2024-03-03T18:54:18.600Z,9.27
2024-03-03T18:56:48.031Z,8.37
2024-03-03T18:59:15.434Z,9.07
2024-03-03T19:01:44.088Z,8.23
2024-03-03T19:04:12.089Z,7.83
2024-03-03T19:06:39.575Z,7.50
2024-03-03T19:09:09.294Z,7.33
2024-03-03T19:11:37.044Z,7.50
2024-03-03T19:14:10.907Z,7.50
2024-03-03T19:16:39.656Z,7.07
2024-03-03T19:19:07.427Z,6.90
2024-03-03T19:21:39.136Z,7.77
2024-03-03T19:24:09.024Z,7.57
2024-03-03T19:26:36.544Z,7.73
2024-03-03T19:29:05.037Z,8.47
2024-03-03T19:31:33.842Z,8.47
2024-03-03T19:34:01.921Z,8.87
2024-03-03T19:36:29.411Z,9.37
2024-03-03T19:38:58.357Z,8.90
2024-03-03T19:41:26.818Z,9.03
2024-03-03T19:43:54.493Z,8.60
2024-03-03T19:46:25.005Z,8.20
2024-03-03T19:48:55.294Z,11.23
2024-03-03T19:51:23.153Z,8.93
2024-03-03T19:53:52.162Z,8.63
2024-03-03T19:56:20.114Z,9.50
2024-03-03T19:58:49.894Z,10.10
2024-03-03T20:01:17.519Z,11.50
2024-03-03T20:03:45.364Z,9.60
2024-03-03T20:06:16.048Z,8.53
2024-03-03T20:08:43.460Z,8.27
2024-03-03T20:11:12.991Z,7.70
2024-03-03T20:13:41.449Z,6.87
2024-03-03T20:16:11.134Z,7.63
2024-03-03T20:18:41.181Z,7.63
2024-03-03T20:21:10.394Z,7.60
2024-03-03T20:23:40.732Z,7.40
2024-03-03T20:26:09.204Z,8.03
2024-03-03T20:28:37.669Z,7.70
2024-03-03T20:31:05.302Z,7.43
2024-03-03T20:33:32.789Z,7.13
2024-03-03T20:36:00.211Z,7.67
2024-03-03T20:38:28.884Z,6.67
2024-03-03T20:40:59.650Z,7.50
2024-03-03T20:43:27.507Z,7.40
2024-03-03T20:45:54.999Z,7.30
2024-03-03T20:48:22.492Z,8.30
2024-03-03T20:50:50.280Z,7.17
2024-03-03T20:53:20.418Z,6.70
2024-03-03T20:55:48.170Z,7.33
2024-03-03T20:58:17.100Z,7.20
2024-03-03T21:00:44.586Z,6.30
2024-03-03T21:03:12.211Z,6.07
2024-03-03T21:05:39.594Z,6.90
2024-03-03T21:08:10.421Z,6.87
2024-03-03T21:10:40.371Z,6.50
2024-03-03T21:13:07.839Z,6.10
2024-03-03T21:15:38.264Z,6.53
2024-03-03T21:18:05.920Z,7.23
2024-03-03T21:20:33.327Z,8.30
2024-03-03T21:23:00.894Z,7.87
2024-03-03T21:25:28.597Z,7.70
2024-03-03T21:27:56.107Z,7.40
2024-03-03T21:30:24.592Z,7.53
2024-03-03T21:32:53.384Z,7.87
2024-03-03T21:35:21.981Z,7.13
2024-03-03T21:37:49.469Z,6.33
2024-03-03T21:40:17.088Z,6.43
2024-03-03T21:42:45.396Z,7.10
2024-03-03T21:45:14.415Z,7.40
2024-03-03T21:47:43.487Z,7.63
2024-03-03T21:50:13.187Z,7.20
2024-03-03T21:52:41.056Z,7.27
2024-03-03T21:55:09.056Z,8.23
2024-03-03T21:57:36.580Z,7.70
2024-03-03T22:00:04.168Z,7.50
2024-03-03T22:02:40.113Z,7.53
2024-03-03T22:05:08.090Z,8.30
2024-03-03T22:07:38.050Z,9.03
2024-03-03T22:10:08.234Z,8.33
2024-03-03T22:12:36.879Z,8.57
2024-03-03T22:15:05.622Z,8.10
2024-03-03T22:17:33.234Z,8.07
2024-03-03T22:20:00.760Z,7.77
2024-03-03T22:22:28.230Z,7.57
2024-03-03T22:24:57.247Z,6.57
2024-03-03T22:27:24.679Z,6.53
2024-03-03T22:29:53.182Z,7.13
2024-03-03T22:32:20.565Z,6.50
2024-03-03T22:34:48.912Z,6.17
2024-03-03T22:37:17.405Z,6.27
2024-03-03T22:39:45.257Z,6.37
2024-03-03T22:42:13.991Z,6.57
2024-03-03T22:44:41.936Z,7.00
2024-03-03T22:47:09.659Z,8.43
2024-03-03T22:49:37.088Z,7.60
2024-03-03T22:52:05.026Z,9.77
2024-03-03T22:54:33.590Z,7.93
2024-03-03T22:57:03.286Z,8.37
2024-03-03T22:59:32.029Z,8.60
2024-03-03T23:02:00.290Z,8.90
2024-03-03T23:04:28.042Z,8.80
2024-03-03T23:06:56.203Z,8.93
2024-03-03T23:09:23.614Z,8.23
2024-03-03T23:11:51.325Z,7.93
2024-03-03T23:14:18.711Z,6.43
2024-03-03T23:16:47.419Z,6.73
2024-03-03T23:19:15.157Z,6.40
2024-03-03T23:21:42.597Z,7.47
2024-03-03T23:24:10.018Z,7.77
2024-03-03T23:26:38.442Z,7.20
2024-03-03T23:29:08.409Z,7.40
2024-03-03T23:31:35.841Z,7.10
2024-03-03T23:34:05.060Z,7.23
2024-03-03T23:36:32.647Z,7.70
2024-03-03T23:39:00.669Z,7.20
2024-03-03T23:41:28.092Z,7.13
2024-03-03T23:43:55.495Z,7.13
2024-03-03T23:46:25.080Z,7.07
2024-03-03T23:48:52.550Z,7.27
2024-03-03T23:51:21.364Z,7.43
2024-03-03T23:53:49.664Z,6.90
2024-03-03T23:56:17.472Z,6.53
2024-03-03T23:58:44.899Z,6.00
